createdAt,value
2023-01-11T00:01:51.698Z,72.39
2023-01-11T00:04:18.932Z,72.05
2023-01-11T00:06:46.044Z,72.60
2023-01-11T00:09:13.014Z,73.21
2023-01-11T00:11:39.539Z,73.27
2023-01-11T00:14:06.095Z,73.76
2023-01-11T00:16:32.670Z,73.43
2023-01-11T00:18:59.145Z,72.67
2023-01-11T00:21:26.862Z,73.82
2023-01-11T00:23:53.465Z,72.70
2023-01-11T00:26:20.012Z,73.46
2023-01-11T00:28:48.237Z,72.90
2023-01-11T00:31:14.824Z,71.95
2023-01-11T00:33:41.367Z,72.22
2023-01-11T00:36:08.083Z,71.93
2023-01-11T00:38:54.132Z,71.55
2023-01-11T00:41:40.269Z,72.19
2023-01-11T00:44:25.319Z,71.70
2023-01-11T00:47:10.780Z,71.72
2023-01-11T00:49:37.283Z,71.20
2023-01-11T00:52:08.856Z,70.91
2023-01-11T00:54:36.281Z,70.95
2023-01-11T00:57:02.853Z,70.93
2023-01-11T00:59:29.558Z,70.91
2023-01-11T01:01:56.099Z,70.66
2023-01-11T01:04:22.666Z,71.23
2023-01-11T01:06:49.206Z,70.14
2023-01-11T01:09:15.721Z,69.99
2023-01-11T01:11:42.269Z,70.14
2023-01-11T01:14:26.705Z,69.19
2023-01-11T01:16:53.784Z,69.12
2023-01-11T01:19:21.511Z,68.67
2023-01-11T01:21:48.586Z,69.36
2023-01-11T01:24:15.325Z,69.09
2023-01-11T01:26:41.917Z,68.14
2023-01-11T01:29:08.565Z,68.86
2023-01-11T01:31:35.324Z,69.26
2023-01-11T01:34:01.876Z,69.81
2023-01-11T01:36:28.384Z,69.81
2023-01-11T01:38:54.981Z,69.43
2023-01-11T01:41:21.486Z,69.35
2023-01-11T01:43:55.889Z,69.33
2023-01-11T01:46:23.556Z,69.48
2023-01-11T01:49:10.277Z,69.36
2023-01-11T01:51:41.991Z,68.09
2023-01-11T01:54:12.588Z,68.86
2023-01-11T01:56:51.074Z,69.71
2023-01-11T01:59:19.792Z,69.56
2023-01-11T02:01:50.074Z,68.74
2023-01-11T02:04:28.295Z,68.75
2023-01-11T02:07:00.967Z,69.64
2023-01-11T02:09:38.986Z,69.41
2023-01-11T02:12:06.299Z,69.37
2023-01-11T02:14:32.964Z,68.56
2023-01-11T02:16:59.481Z,68.62
2023-01-11T02:19:40.869Z,69.51
2023-01-11T02:22:15.448Z,69.17
2023-01-11T02:24:44.284Z,68.89
2023-01-11T02:27:35.716Z,68.52
2023-01-11T02:30:02.154Z,67.80
2023-01-11T02:32:40.388Z,67.90
2023-01-11T02:35:17.207Z,68.01
2023-01-11T02:37:49.643Z,68.02
2023-01-11T02:40:25.098Z,68.41
2023-01-11T02:43:16.522Z,68.98
2023-01-11T02:45:45.772Z,68.81
2023-01-11T02:48:12.306Z,68.97
2023-01-11T02:50:59.145Z,69.32
2023-01-11T02:53:34.694Z,69.14
2023-01-11T02:56:06.341Z,69.26
2023-01-11T02:58:35.313Z,69.78
2023-01-11T03:01:02.313Z,69.71
2023-01-11T03:03:29.610Z,69.81
2023-01-11T03:06:05.213Z,69.66
2023-01-11T03:08:44.510Z,69.30
2023-01-11T03:11:45.866Z,69.77
2023-01-11T03:14:27.640Z,69.66
2023-01-11T03:17:12.886Z,69.63
2023-01-11T03:19:53.135Z,69.69
2023-01-11T03:22:19.649Z,68.89
2023-01-11T03:24:48.225Z,69.07
2023-01-11T03:27:14.769Z,69.84
2023-01-11T03:29:41.265Z,70.89
2023-01-11T03:32:07.705Z,71.75
2023-01-11T03:34:37.265Z,72.51
2023-01-11T03:37:33.364Z,72.81
2023-01-11T03:40:04.893Z,73.10
2023-01-11T03:42:33.231Z,72.99
2023-01-11T03:45:00.530Z,73.20
2023-01-11T03:47:29.366Z,73.42
2023-01-11T03:49:58.926Z,73.23
2023-01-11T03:52:29.190Z,73.65
2023-01-11T03:54:56.516Z,74.11
2023-01-11T03:57:24.634Z,74.46
2023-01-11T03:59:51.706Z,74.53
2023-01-11T04:02:19.654Z,74.61
2023-01-11T04:04:46.255Z,73.48
2023-01-11T04:07:13.719Z,72.83
2023-01-11T04:09:40.183Z,72.65
2023-01-11T04:12:06.848Z,72.47
2023-01-11T04:14:33.438Z,73.14
2023-01-11T04:17:00.012Z,72.98
2023-01-11T04:19:26.538Z,72.30
2023-01-11T04:21:53.071Z,73.07
2023-01-11T04:24:19.739Z,73.47
2023-01-11T04:26:46.321Z,73.93
2023-01-11T04:29:12.879Z,74.21
2023-01-11T04:31:39.381Z,74.58
2023-01-11T04:34:05.987Z,75.00
2023-01-11T04:36:33.611Z,74.65
2023-01-11T04:39:00.588Z,74.59
2023-01-11T04:41:45.595Z,74.61
2023-01-11T04:44:12.112Z,74.81
2023-01-11T04:46:38.597Z,74.38
2023-01-11T04:49:05.151Z,74.25
2023-01-11T04:51:31.607Z,74.32
2023-01-11T04:53:58.133Z,74.18
2023-01-11T04:56:24.873Z,73.13
2023-01-11T04:58:51.381Z,73.04
2023-01-11T05:01:18.587Z,73.12
2023-01-11T05:03:45.487Z,72.73
2023-01-11T05:06:12.458Z,73.25
2023-01-11T05:08:38.973Z,73.28
2023-01-11T05:11:07.045Z,73.85
2023-01-11T05:13:42.766Z,74.41
2023-01-11T05:16:09.314Z,74.40
2023-01-11T05:18:36.446Z,74.45
2023-01-11T05:21:03.066Z,74.57
2023-01-11T05:23:29.582Z,74.85
2023-01-11T05:25:56.073Z,74.89
2023-01-11T05:28:22.594Z,74.84
2023-01-11T05:30:53.466Z,74.88
2023-01-11T05:33:20.330Z,74.54
2023-01-11T05:35:47.102Z,74.49
2023-01-11T05:38:14.111Z,74.47
2023-01-11T05:40:41.702Z,73.85
2023-01-11T05:43:11.022Z,72.96
2023-01-11T05:45:41.098Z,72.96
2023-01-11T05:48:10.365Z,71.57
2023-01-11T05:50:38.303Z,70.20
2023-01-11T05:53:07.355Z,71.15
2023-01-11T05:55:34.131Z,70.16
2023-01-11T05:58:03.184Z,69.73
2023-01-11T06:00:29.761Z,69.27
2023-01-11T06:02:56.301Z,69.34
2023-01-11T06:05:22.937Z,70.05
2023-01-11T06:07:49.446Z,69.99
2023-01-11T06:10:16.411Z,70.13
2023-01-11T06:12:54.884Z,70.28
2023-01-11T06:15:21.599Z,69.21
2023-01-11T06:17:48.188Z,68.79
2023-01-11T06:20:14.658Z,68.82
2023-01-11T06:22:41.308Z,68.67
2023-01-11T06:25:08.040Z,69.37
2023-01-11T06:27:34.715Z,68.52
2023-01-11T06:30:01.235Z,68.49
2023-01-11T06:32:29.124Z,69.42
2023-01-11T06:34:55.592Z,70.41
2023-01-11T06:37:22.079Z,70.77
2023-01-11T06:39:48.537Z,70.24
2023-01-11T06:42:15.015Z,70.74
2023-01-11T06:44:41.545Z,69.98
2023-01-11T06:47:08.199Z,69.32
2023-01-11T06:49:34.701Z,68.85
2023-01-11T06:52:01.134Z,68.76
2023-01-11T06:54:27.674Z,68.21
2023-01-11T06:56:54.194Z,69.16
2023-01-11T06:59:20.815Z,68.31
2023-01-11T07:01:47.529Z,69.39
2023-01-11T07:04:14.435Z,68.98
2023-01-11T07:06:40.930Z,68.44
2023-01-11T07:09:07.502Z,68.21
2023-01-11T07:11:35.197Z,67.69
2023-01-11T07:14:01.754Z,68.07
2023-01-11T07:16:28.376Z,68.67
2023-01-11T07:18:54.936Z,67.80
2023-01-11T07:21:21.937Z,68.26
2023-01-11T07:23:49.130Z,67.08
2023-01-11T07:26:17.499Z,66.76
2023-01-11T07:28:44.340Z,66.10
2023-01-11T07:31:11.401Z,66.41
2023-01-11T07:33:40.117Z,66.15
2023-01-11T07:36:07.038Z,66.35
2023-01-11T07:38:40.210Z,66.43
2023-01-11T07:41:27.151Z,65.08
2023-01-11T07:44:00.026Z,65.47
2023-01-11T07:46:26.698Z,66.03
2023-01-11T07:48:53.226Z,66.27
2023-01-11T07:51:24.543Z,64.75
2023-01-11T07:53:51.289Z,65.42
2023-01-11T07:56:18.840Z,64.56
2023-01-11T07:58:48.615Z,64.71
2023-01-11T08:01:15.131Z,64.04
2023-01-11T08:03:41.737Z,65.43
2023-01-11T08:06:08.317Z,65.68
2023-01-11T08:08:34.827Z,65.63
2023-01-11T08:11:20.053Z,65.74
2023-01-11T08:14:05.168Z,64.68
2023-01-11T08:16:31.672Z,65.06
2023-01-11T08:18:58.173Z,65.48
2023-01-11T08:21:24.645Z,65.45
2023-01-11T08:23:53.437Z,64.32
2023-01-11T08:26:23.255Z,63.98
2023-01-11T08:28:50.149Z,64.28
2023-01-11T08:31:20.614Z,63.88
2023-01-11T08:33:48.422Z,64.40
2023-01-11T08:36:14.903Z,64.49
2023-01-11T08:38:46.725Z,64.58
2023-01-11T08:41:14.783Z,64.75
2023-01-11T08:43:45.466Z,65.04
2023-01-11T08:46:12.009Z,65.36
2023-01-11T08:48:38.517Z,64.67
2023-01-11T08:51:05.136Z,64.89
2023-01-11T08:53:31.994Z,65.31
2023-01-11T08:55:58.455Z,65.27
2023-01-11T08:58:25.574Z,64.92
2023-01-11T09:00:52.144Z,64.36
2023-01-11T09:03:21.510Z,64.74
2023-01-11T09:05:48.040Z,63.78
2023-01-11T09:08:16.165Z,64.29
2023-01-11T09:10:42.643Z,64.76
2023-01-11T09:13:09.141Z,63.96
2023-01-11T09:15:35.648Z,64.50
2023-01-11T09:18:03.238Z,64.46
2023-01-11T09:20:29.781Z,64.02
2023-01-11T09:22:56.261Z,63.66
2023-01-11T09:25:23.316Z,64.18
2023-01-11T09:27:50.767Z,64.54
2023-01-11T09:30:18.792Z,63.81
2023-01-11T09:32:45.819Z,63.17
2023-01-11T09:35:16.828Z,63.18
2023-01-11T09:37:50.350Z,63.65
2023-01-11T09:40:38.677Z,63.30
2023-01-11T09:43:08.014Z,63.52
2023-01-11T09:45:35.724Z,63.61
2023-01-11T09:48:30.659Z,63.61
2023-01-11T09:50:57.973Z,63.46
2023-01-11T09:53:31.758Z,63.25
2023-01-11T09:56:01.418Z,64.66
2023-01-11T09:58:36.554Z,64.44
2023-01-11T10:01:03.595Z,63.93
2023-01-11T10:04:10.076Z,64.19
2023-01-11T10:06:55.351Z,64.43
2023-01-11T10:18:26.162Z,62.39
2023-01-11T10:18:42.768Z,62.46
2023-01-11T10:21:12.217Z,61.33
2023-01-11T10:23:41.853Z,61.61
2023-01-11T10:26:17.737Z,62.06
2023-01-11T10:29:03.694Z,62.13
2023-01-11T10:31:45.113Z,62.44
2023-01-11T10:34:41.079Z,62.52
2023-01-11T10:37:36.238Z,62.51
2023-01-11T10:40:24.589Z,62.81
2023-01-11T10:42:54.638Z,63.02
2023-01-11T10:45:25.481Z,63.03
2023-01-11T10:47:59.294Z,63.25
2023-01-11T10:50:31.155Z,63.91
2023-01-11T10:53:05.315Z,63.72
2023-01-11T10:55:39.953Z,64.18
2023-01-11T10:58:11.057Z,63.68
2023-01-11T11:00:43.738Z,63.92
2023-01-11T11:03:16.385Z,64.47
2023-01-11T11:06:03.267Z,63.56
2023-01-11T11:08:48.869Z,63.21
2023-01-11T11:11:35.275Z,62.82
2023-01-11T11:14:01.872Z,62.66
2023-01-11T11:16:31.328Z,62.39
2023-01-11T11:18:58.973Z,61.90
2023-01-11T11:21:37.507Z,61.75
2023-01-11T11:24:06.571Z,61.86
2023-01-11T11:26:38.618Z,61.32
2023-01-11T11:29:06.764Z,61.82
2023-01-11T11:31:35.112Z,61.70
2023-01-11T11:34:08.844Z,61.75
2023-01-11T11:36:42.731Z,61.37
2023-01-11T11:39:10.873Z,61.38
2023-01-11T11:41:48.611Z,61.51
2023-01-11T11:44:16.307Z,61.39
2023-01-11T11:46:55.849Z,61.76
2023-01-11T11:49:22.504Z,61.92
2023-01-11T11:51:53.283Z,62.31
2023-01-11T11:54:23.016Z,62.63
2023-01-11T11:56:49.819Z,63.01
2023-01-11T11:59:19.373Z,62.78
2023-01-11T12:01:47.811Z,62.51
2023-01-11T12:04:16.509Z,62.19
2023-01-11T12:06:46.526Z,62.63
2023-01-11T12:09:34.207Z,62.39
2023-01-11T12:12:00.975Z,61.84
2023-01-11T12:14:28.657Z,61.57
2023-01-11T12:16:57.250Z,62.13
2023-01-11T12:19:28.527Z,62.28
2023-01-11T12:22:23.586Z,62.11
2023-01-11T12:25:22.949Z,61.40
2023-01-11T12:28:02.606Z,61.57
2023-01-11T12:30:29.939Z,61.18
2023-01-11T12:32:56.467Z,61.60
2023-01-11T12:35:26.013Z,61.90
2023-01-11T12:40:38.801Z,61.88
2023-01-11T12:43:24.001Z,61.98
2023-01-11T12:46:01.158Z,61.68
2023-01-11T12:48:43.025Z,62.05
2023-01-11T12:51:28.345Z,61.24
2023-01-11T12:54:12.589Z,61.76
2023-01-11T12:56:47.270Z,61.91
2023-01-11T12:59:32.439Z,61.81
2023-01-11T13:02:17.853Z,61.57
2023-01-11T13:05:04.010Z,61.66
2023-01-11T13:07:39.452Z,61.54
2023-01-11T13:10:05.945Z,61.66
2023-01-11T13:12:32.427Z,61.60
2023-01-11T13:15:17.609Z,61.51
2023-01-11T13:17:52.791Z,61.30
2023-01-11T13:20:48.692Z,61.64
2023-01-11T13:23:29.469Z,61.65
2023-01-11T13:25:57.905Z,62.17
2023-01-11T13:28:41.906Z,62.15
2023-01-11T13:31:11.153Z,62.13
2023-01-11T13:33:40.633Z,62.05
2023-01-11T13:36:15.037Z,62.15
2023-01-11T13:38:56.410Z,61.80
2023-01-11T13:41:28.767Z,61.62
2023-01-11T13:44:06.785Z,61.89
2023-01-11T13:46:33.314Z,62.17
2023-01-11T13:49:04.792Z,62.34
2023-01-11T13:51:34.089Z,62.30
2023-01-11T13:54:19.289Z,62.26
2023-01-11T13:56:50.909Z,62.06
2023-01-11T13:59:28.539Z,62.17
2023-01-11T14:02:10.140Z,62.17
2023-01-11T14:04:55.470Z,61.96
2023-01-11T14:07:35.018Z,61.92
2023-01-11T14:10:01.640Z,62.50
2023-01-11T14:12:43.075Z,62.43
2023-01-11T14:15:12.996Z,62.80
2023-01-11T14:17:40.121Z,62.95
2023-01-11T14:20:15.478Z,63.03
2023-01-11T14:23:00.436Z,63.37
2023-01-11T14:25:37.049Z,63.73
2023-01-11T14:28:18.693Z,64.37
2023-01-11T14:31:12.328Z,64.59
2023-01-11T14:33:45.042Z,65.06
2023-01-11T14:36:20.916Z,66.43
2023-01-11T14:38:56.540Z,66.05
2023-01-11T14:41:23.046Z,67.01
2023-01-11T14:44:13.376Z,66.53
2023-01-11T14:46:39.882Z,66.83
2023-01-11T14:49:18.514Z,67.19
2023-01-11T14:51:45.020Z,67.79
2023-01-11T14:54:44.840Z,68.29
2023-01-11T14:57:30.227Z,69.96
2023-01-11T14:59:56.721Z,69.18
2023-01-11T15:02:25.574Z,70.76
2023-01-11T15:04:52.253Z,71.43
2023-01-11T15:07:33.623Z,70.80
2023-01-11T15:10:19.264Z,71.01
2023-01-11T15:12:45.707Z,71.13
2023-01-11T15:15:22.084Z,71.34
2023-01-11T15:18:16.009Z,71.04
2023-01-11T15:20:56.831Z,71.58
2023-01-11T15:23:23.870Z,72.52
2023-01-11T15:26:00.575Z,72.84
2023-01-11T15:28:49.968Z,73.08
2023-01-11T15:31:29.057Z,73.39
2023-01-11T15:33:55.852Z,74.42
2023-01-11T15:36:46.969Z,73.42
2023-01-11T15:39:13.904Z,73.78
2023-01-11T15:42:06.546Z,74.25
2023-01-11T15:44:51.545Z,74.43
2023-01-11T15:47:24.127Z,74.43
2023-01-11T15:50:04.157Z,74.54
2023-01-11T15:52:33.918Z,74.29
2023-01-11T15:55:03.710Z,74.50
2023-01-11T15:57:45.321Z,75.11
2023-01-11T16:00:30.446Z,75.38
2023-01-11T16:03:00.114Z,76.38
2023-01-11T16:05:33.577Z,75.97
2023-01-11T16:08:10.711Z,76.17
2023-01-11T16:10:40.251Z,75.76
2023-01-11T16:13:29.609Z,76.27
2023-01-11T16:16:15.304Z,75.99
2023-01-11T16:19:01.411Z,76.00
2023-01-11T16:21:38.979Z,75.61
2023-01-11T16:24:07.349Z,75.57
2023-01-11T16:26:35.948Z,75.50
2023-01-11T16:29:07.583Z,76.39
2023-01-11T16:31:52.959Z,75.97
2023-01-11T16:34:19.631Z,76.34
2023-01-11T16:36:49.380Z,75.58
2023-01-11T16:39:30.345Z,76.35
2023-01-11T16:42:00.644Z,76.45
2023-01-11T16:44:44.895Z,77.07
2023-01-11T16:47:11.508Z,76.44
2023-01-11T16:49:39.171Z,76.51
2023-01-11T16:52:24.535Z,76.62
2023-01-11T16:54:51.256Z,76.70
2023-01-11T16:57:17.840Z,76.82
2023-01-11T17:00:01.960Z,77.04
2023-01-11T17:02:31.905Z,76.78
2023-01-11T17:04:59.332Z,77.17
2023-01-11T17:07:25.993Z,77.02
2023-01-11T17:09:52.455Z,76.80
2023-01-11T17:12:21.572Z,76.72
2023-01-11T17:15:08.313Z,77.02
2023-01-11T17:17:38.463Z,77.07
2023-01-11T17:20:14.582Z,77.18
2023-01-11T17:22:43.441Z,77.37
2023-01-11T17:25:19.313Z,77.74
2023-01-11T17:27:50.281Z,78.00
2023-01-11T17:30:21.712Z,77.97
2023-01-11T17:32:52.474Z,77.76
2023-01-11T17:35:19.199Z,77.98
2023-01-11T17:37:47.491Z,77.93
2023-01-11T17:40:25.038Z,78.12
2023-01-11T17:43:10.695Z,78.43
2023-01-11T17:45:37.738Z,79.31
2023-01-11T17:48:21.689Z,78.51
2023-01-11T17:50:57.964Z,78.25
2023-01-11T17:53:32.793Z,78.27
2023-01-11T17:56:03.305Z,78.47
2023-01-11T17:58:33.856Z,78.61
2023-01-11T18:01:09.298Z,79.14
2023-01-11T18:03:40.395Z,79.43
2023-01-11T18:06:19.459Z,79.53
2023-01-11T18:09:41.476Z,79.69
2023-01-11T18:12:07.943Z,79.66
2023-01-11T18:14:41.788Z,79.82
2023-01-11T18:17:26.846Z,79.73
2023-01-11T18:19:53.412Z,79.78
2023-01-11T18:22:32.248Z,79.11
2023-01-11T18:24:59.489Z,79.56
2023-01-11T18:27:26.305Z,79.26
2023-01-11T18:29:53.579Z,79.34
2023-01-11T18:32:20.550Z,79.50
2023-01-11T18:34:48.207Z,80.28
2023-01-11T18:37:15.924Z,80.52
2023-01-11T18:39:42.912Z,80.53
2023-01-11T18:42:14.846Z,81.47
2023-01-11T18:44:42.447Z,82.43
2023-01-11T18:47:22.489Z,82.73
2023-01-11T18:49:49.812Z,82.83
2023-01-11T18:52:16.940Z,82.87
2023-01-11T18:54:43.544Z,82.93
2023-01-11T18:57:10.697Z,83.42
2023-01-11T18:59:37.196Z,82.48
2023-01-11T19:02:17.312Z,82.71
2023-01-11T19:04:44.286Z,81.81
2023-01-11T19:07:11.034Z,81.62
2023-01-11T19:09:37.800Z,81.68
2023-01-11T19:12:05.448Z,81.53
2023-01-11T19:14:42.059Z,81.64
2023-01-11T19:17:09.914Z,81.68
2023-01-11T19:19:36.744Z,81.82
2023-01-11T19:22:03.983Z,81.68
2023-01-11T19:24:31.333Z,81.87
2023-01-11T19:26:58.268Z,81.73
2023-01-11T19:29:25.445Z,81.95
2023-01-11T19:31:52.815Z,82.15
2023-01-11T19:34:19.881Z,82.19
2023-01-11T19:36:46.556Z,82.55
2023-01-11T19:39:13.110Z,82.63
2023-01-11T19:41:54.702Z,82.73
2023-01-11T19:44:21.564Z,82.99
2023-01-11T19:46:53.101Z,83.04
2023-01-11T19:49:26.988Z,82.90
2023-01-11T19:51:53.591Z,84.00
2023-01-11T19:54:25.092Z,83.45
2023-01-11T19:56:52.554Z,83.41
2023-01-11T19:59:19.484Z,83.08
2023-01-11T20:01:46.524Z,83.32
2023-01-11T20:04:13.673Z,84.27
2023-01-11T20:06:50.244Z,83.84
2023-01-11T20:09:23.357Z,83.86
2023-01-11T20:11:50.211Z,83.47
2023-01-11T20:14:17.056Z,83.14
2023-01-11T20:16:43.595Z,83.44
2023-01-11T20:19:10.395Z,83.39
2023-01-11T20:21:37.083Z,83.62
2023-01-11T20:24:03.807Z,83.39
2023-01-11T20:26:31.478Z,83.46
2023-01-11T20:28:58.150Z,83.69
2023-01-11T20:31:28.697Z,83.92
2023-01-11T20:33:55.630Z,84.23
2023-01-11T20:36:22.155Z,85.33
2023-01-11T20:38:48.637Z,85.88
2023-01-11T20:41:35.205Z,86.31
2023-01-11T20:44:02.047Z,85.91
2023-01-11T20:46:28.901Z,85.70
2023-01-11T20:48:55.514Z,85.06
2023-01-11T20:51:21.924Z,84.85
2023-01-11T20:53:48.444Z,84.91
2023-01-11T20:56:15.279Z,84.60
2023-01-11T20:58:41.885Z,85.13
2023-01-11T21:01:09.808Z,85.13
2023-01-11T21:03:36.720Z,85.40
2023-01-11T21:06:03.864Z,85.37
2023-01-11T21:08:30.677Z,85.63
2023-01-11T21:10:57.367Z,85.80
2023-01-11T21:13:26.142Z,85.72
2023-01-11T21:15:52.639Z,86.27
2023-01-11T21:18:19.108Z,87.01
2023-01-11T21:20:48.936Z,87.46
2023-01-11T21:23:16.699Z,87.82
2023-01-11T21:25:43.188Z,87.55
2023-01-11T21:28:09.690Z,87.26
2023-01-11T21:30:36.126Z,87.28
2023-01-11T21:33:02.691Z,86.91
2023-01-11T21:35:29.498Z,86.84
2023-01-11T21:37:56.007Z,86.76
2023-01-11T21:40:22.854Z,87.08
2023-01-11T21:42:49.295Z,87.64
2023-01-11T21:45:15.749Z,86.68
2023-01-11T21:47:43.790Z,86.43
2023-01-11T21:50:12.990Z,86.07
2023-01-11T21:52:42.474Z,86.06
2023-01-11T21:55:11.065Z,86.01
2023-01-11T21:57:37.589Z,86.05
2023-01-11T22:00:05.117Z,86.31
2023-01-11T22:02:31.647Z,86.58
2023-01-11T22:04:58.692Z,86.62
2023-01-11T22:07:30.744Z,86.49
2023-01-11T22:10:04.463Z,86.50
2023-01-11T22:12:35.549Z,87.31
2023-01-11T22:15:02.117Z,87.38
2023-01-11T22:17:28.642Z,87.92
2023-01-11T22:19:55.167Z,87.51
2023-01-11T22:22:21.608Z,87.47
2023-01-11T22:24:48.104Z,87.27
2023-01-11T22:27:14.639Z,87.46
2023-01-11T22:29:43.303Z,86.91
2023-01-11T22:32:09.799Z,87.30
2023-01-11T22:34:39.206Z,87.44
2023-01-11T22:37:06.211Z,87.55
2023-01-11T22:39:32.773Z,87.12
2023-01-11T22:41:59.254Z,86.83
2023-01-11T22:44:28.312Z,86.55
2023-01-11T22:46:54.851Z,86.48
2023-01-11T22:49:21.411Z,86.41
2023-01-11T22:51:48.338Z,86.38
2023-01-11T22:54:15.102Z,86.56
2023-01-11T22:56:41.855Z,86.95
2023-01-11T22:59:08.410Z,87.49
2023-01-11T23:01:36.328Z,88.17
2023-01-11T23:04:03.337Z,88.68
2023-01-11T23:06:35.034Z,89.24
2023-01-11T23:09:01.570Z,89.34
2023-01-11T23:11:48.059Z,89.18
2023-01-11T23:14:16.073Z,89.26
2023-01-11T23:16:43.005Z,89.55
2023-01-11T23:19:10.452Z,89.65
2023-01-11T23:21:39.791Z,89.01
2023-01-11T23:24:06.447Z,89.31
2023-01-11T23:26:32.982Z,88.65
2023-01-11T23:28:59.440Z,89.13
2023-01-11T23:31:26.652Z,89.58
2023-01-11T23:33:54.623Z,89.76
2023-01-11T23:36:21.871Z,89.36
2023-01-11T23:38:48.517Z,88.77
2023-01-11T23:41:35.213Z,89.59
2023-01-11T23:44:02.325Z,89.62
2023-01-11T23:46:47.536Z,89.75
2023-01-11T23:49:16.750Z,89.72
2023-01-11T23:51:43.486Z,90.10
2023-01-11T23:54:10.358Z,90.04
2023-01-11T23:56:37.139Z,89.77
2023-01-11T23:59:04.663Z,89.72
